Time;durP1;ratioP1;P1;durP2;ratioP2;P2;SDS_P1;SDS_P2;PMS_P1;PMS_P2;Temp;Humidity;BMP_temperature;BMP_pressure;BME280_temperature;BME280_humidity;BME280_pressure;Samples;Min_cycle;Max_cycle;Signal;HPM_P1;HPM_P2
2021/11/28 00:00:07;;;;;;;1.55;1.15;;;;;;;;;;5013439;28;20040;-73
2021/11/28 00:02:35;;;;;;;4.32;1.27;;;;;;;;;;4995681;28;20053;-71
2021/11/28 00:05:03;;;;;;;2.60;1.20;;;;;;;;;;4995868;28;20042;-73
2021/11/28 00:12:48;;;;;;;1.77;1.00;;;;;;;;;;5002091;28;20119;-72
2021/11/28 00:15:19;;;;;;;3.95;1.83;;;;;;;;;;5019993;28;20332;-72
2021/11/28 00:17:47;;;;;;;5.72;1.25;;;;;;;;;;5019543;28;20044;-77
2021/11/28 00:20:16;;;;;;;2.92;1.02;;;;;;;;;;5019372;28;20524;-73
2021/11/28 00:22:44;;;;;;;2.72;0.80;;;;;;;;;;5019308;28;20121;-73
2021/11/28 00:25:17;;;;;;;2.78;0.93;;;;;;;;;;5019224;28;20046;-73
2021/11/28 00:27:47;;;;;;;4.85;1.58;;;;;;;;;;5019265;28;20042;-73
2021/11/28 00:30:20;;;;;;;5.93;1.08;;;;;;;;;;5019907;28;20117;-71
2021/11/28 00:32:48;;;;;;;4.65;0.95;;;;;;;;;;5019558;28;20038;-73
2021/11/28 00:35:17;;;;;;;2.30;1.25;;;;;;;;;;4985914;28;20050;-77
2021/11/28 00:37:45;;;;;;;1.65;1.05;;;;;;;;;;5019442;28;20466;-73
2021/11/28 00:40:13;;;;;;;3.28;1.05;;;;;;;;;;5018799;28;20038;-72
2021/11/28 00:42:41;;;;;;;8.00;1.23;;;;;;;;;;5001892;28;20053;-74
2021/11/28 00:45:09;;;;;;;3.47;0.88;;;;;;;;;;5019465;28;20048;-71
2021/11/28 00:47:37;;;;;;;4.32;1.23;;;;;;;;;;5019169;28;20034;-73
2021/11/28 00:50:24;;;;;;;3.80;0.90;;;;;;;;;;5001593;28;20054;-73
2021/11/28 00:52:54;;;;;;;3.38;1.20;;;;;;;;;;5002111;28;20069;-77
2021/11/28 00:55:21;;;;;;;1.67;0.90;;;;;;;;;;5018859;28;20045;-73
2021/11/28 00:57:52;;;;;;;5.10;1.30;;;;;;;;;;5001675;28;20392;-73
2021/11/28 01:00:20;;;;;;;6.25;0.90;;;;;;;;;;5001411;28;20046;-73
2021/11/28 01:02:47;;;;;;;2.38;1.00;;;;;;;;;;5019150;28;20041;-72
2021/11/28 01:05:15;;;;;;;2.75;1.17;;;;;;;;;;5001475;28;20053;-72
2021/11/28 01:07:42;;;;;;;2.72;1.13;;;;;;;;;;5019276;28;20388;-74
2021/11/28 01:10:12;;;;;;;4.47;1.13;;;;;;;;;;5001217;28;20053;-73
2021/11/28 01:12:41;;;;;;;3.65;0.90;;;;;;;;;;5019403;28;20045;-78
2021/11/28 01:15:10;;;;;;;3.08;0.98;;;;;;;;;;5019105;28;20047;-77
2021/11/28 01:17:38;;;;;;;2.35;1.30;;;;;;;;;;5017377;28;20038;-71
2021/11/28 01:20:07;;;;;;;2.72;1.23;;;;;;;;;;5015635;28;20125;-73
2021/11/28 01:22:35;;;;;;;4.07;1.58;;;;;;;;;;4997791;28;20375;-78
2021/11/28 01:25:03;;;;;;;2.83;1.40;;;;;;;;;;4998350;28;20070;-73
2021/11/28 01:27:33;;;;;;;1.85;0.95;;;;;;;;;;4982425;28;20046;-74
2021/11/28 01:30:01;;;;;;;3.58;1.52;;;;;;;;;;4981949;28;20049;-77
2021/11/28 01:32:35;;;;;;;3.03;1.60;;;;;;;;;;4998581;28;20038;-73
2021/11/28 01:35:04;;;;;;;2.50;1.10;;;;;;;;;;4982318;28;20500;-73
2021/11/28 01:37:34;;;;;;;5.55;1.75;;;;;;;;;;4997435;28;20691;-72
2021/11/28 01:40:09;;;;;;;1.83;1.20;;;;;;;;;;4997648;28;20081;-74
2021/11/28 01:42:38;;;;;;;5.45;1.40;;;;;;;;;;4997761;28;20490;-72
2021/11/28 01:45:07;;;;;;;1.73;1.20;;;;;;;;;;4998207;28;20065;-77
2021/11/28 01:47:34;;;;;;;5.38;1.30;;;;;;;;;;4997693;28;20058;-74
2021/11/28 01:50:05;;;;;;;2.58;1.50;;;;;;;;;;4997678;28;20133;-78
2021/11/28 01:52:36;;;;;;;2.30;1.90;;;;;;;;;;4997602;28;20042;-77
2021/11/28 01:55:07;;;;;;;2.55;1.92;;;;;;;;;;4997772;28;20060;-78
2021/11/28 01:57:34;;;;;;;7.40;1.60;;;;;;;;;;4998197;28;20054;-71
2021/11/28 02:00:08;;;;;;;3.38;1.60;;;;;;;;;;4997440;28;20092;-72
2021/11/28 02:02:44;;;;;;;4.35;1.50;;;;;;;;;;5014803;28;20120;-72
2021/11/28 02:05:18;;;;;;;10.18;2.05;;;;;;;;;;4997701;28;20046;-71
2021/11/28 02:07:47;;;;;;;3.40;1.35;;;;;;;;;;4980741;28;20120;-76
2021/11/28 02:10:15;;;;;;;4.50;1.70;;;;;;;;;;4997183;28;20060;-72
2021/11/28 02:12:44;;;;;;;5.07;1.45;;;;;;;;;;4997442;28;20073;-76
2021/11/28 02:15:12;;;;;;;4.28;1.33;;;;;;;;;;4997130;28;20048;-72
2021/11/28 02:17:44;;;;;;;;;;;;;;;;;;4997638;28;20539;-76
2021/11/28 02:20:14;;;;;;;7.43;1.45;;;;;;;;;;4997269;28;19921;-77
2021/11/28 02:22:43;;;;;;;5.95;1.67;;;;;;;;;;5014234;28;20089;-72
2021/11/28 02:25:11;;;;;;;7.32;1.55;;;;;;;;;;4981447;28;20046;-70
2021/11/28 02:27:42;;;;;;;4.75;1.50;;;;;;;;;;4997092;28;20045;-77
2021/11/28 02:30:12;;;;;;;4.53;1.38;;;;;;;;;;4996462;28;20048;-70
2021/11/28 02:32:42;;;;;;;10.45;1.92;;;;;;;;;;4996953;28;20050;-71
2021/11/28 02:35:14;;;;;;;5.50;1.50;;;;;;;;;;4980655;28;20152;-73
2021/11/28 02:37:42;;;;;;;13.53;5.17;;;;;;;;;;4996538;28;20065;-77
2021/11/28 02:40:16;;;;;;;8.23;2.47;;;;;;;;;;4996626;28;20371;-71
2021/11/28 02:42:44;;;;;;;7.05;2.60;;;;;;;;;;4981084;28;20390;-73
2021/11/28 02:45:14;;;;;;;11.15;2.30;;;;;;;;;;4996686;28;20065;-72
2021/11/28 02:47:42;;;;;;;7.53;1.83;;;;;;;;;;4997237;28;20050;-76
2021/11/28 02:50:12;;;;;;;13.25;2.15;;;;;;;;;;5013502;28;20433;-73
2021/11/28 02:52:40;;;;;;;15.00;3.25;;;;;;;;;;4996723;28;20053;-73
2021/11/28 02:55:08;;;;;;;11.48;2.20;;;;;;;;;;5014464;28;20042;-71
2021/11/28 02:57:36;;;;;;;10.00;2.55;;;;;;;;;;4996330;28;20073;-73
2021/11/28 03:00:07;;;;;;;6.82;2.20;;;;;;;;;;4996251;28;20038;-73
2021/11/28 03:02:40;;;;;;;8.90;2.05;;;;;;;;;;4996307;28;20061;-77
2021/11/28 03:05:16;;;;;;;11.55;2.35;;;;;;;;;;4995965;28;20497;-72
2021/11/28 03:07:45;;;;;;;9.10;1.65;;;;;;;;;;4980563;28;20057;-71
2021/11/28 03:10:39;;;;;;;11.70;2.03;;;;;;;;;;4996145;28;20065;-77
2021/11/28 03:13:19;;;;;;;14.80;1.92;;;;;;;;;;4992297;28;20532;-77
2021/11/28 03:15:47;;;;;;;9.43;1.90;;;;;;;;;;4996658;28;20448;-73
2021/11/28 03:18:17;;;;;;;11.75;1.92;;;;;;;;;;4980291;28;20167;-73
2021/11/28 03:20:46;;;;;;;12.73;2.47;;;;;;;;;;4995725;28;20100;-77
2021/11/28 03:23:14;;;;;;;14.02;2.25;;;;;;;;;;5013537;28;20088;-76
2021/11/28 03:25:42;;;;;;;4.75;1.70;;;;;;;;;;4996245;28;20521;-71
2021/11/28 03:28:17;;;;;;;9.05;2.30;;;;;;;;;;4980405;28;20080;-77
2021/11/28 03:30:47;;;;;;;5.95;1.67;;;;;;;;;;4980394;28;20085;-73
2021/11/28 03:33:26;;;;;;;8.35;1.80;;;;;;;;;;5013802;28;20529;-73
2021/11/28 03:36:19;;;;;;;10.13;2.20;;;;;;;;;;4996121;28;20540;-72
2021/11/28 03:38:48;;;;;;;12.82;2.67;;;;;;;;;;4995610;28;20046;-73
2021/11/28 03:41:18;;;;;;;9.55;2.20;;;;;;;;;;4995415;28;20124;-71
2021/11/28 03:43:46;;;;;;;11.57;2.20;;;;;;;;;;4995798;28;20053;-71
2021/11/28 03:46:14;;;;;;;7.32;1.75;;;;;;;;;;5013289;28;20042;-74
2021/11/28 03:48:42;;;;;;;14.32;2.35;;;;;;;;;;4995398;28;20434;-71
2021/11/28 03:51:16;;;;;;;10.43;2.22;;;;;;;;;;4996031;28;20046;-71
2021/11/28 03:53:44;;;;;;;10.65;2.40;;;;;;;;;;4995641;28;20559;-73
2021/11/28 03:56:15;;;;;;;10.75;2.00;;;;;;;;;;4995671;28;20128;-71
2021/11/28 03:58:42;;;;;;;18.83;3.65;;;;;;;;;;4979466;28;20100;-77
2021/11/28 04:01:11;;;;;;;13.10;3.63;;;;;;;;;;4993343;28;20092;-73
2021/11/28 04:03:39;;;;;;;17.42;4.80;;;;;;;;;;4994521;28;20129;-73
2021/11/28 04:06:25;;;;;;;15.82;4.13;;;;;;;;;;4995757;28;20045;-77
2021/11/28 04:08:57;;;;;;;12.77;4.07;;;;;;;;;;4995292;28;20042;-71
2021/11/28 04:11:24;;;;;;;16.40;2.42;;;;;;;;;;4979611;28;20062;-71
2021/11/28 04:13:53;;;;;;;13.70;3.08;;;;;;;;;;4995312;28;20133;-77
2021/11/28 04:16:21;;;;;;;16.67;3.13;;;;;;;;;;4995152;28;20046;-76
2021/11/28 04:18:49;;;;;;;16.77;2.67;;;;;;;;;;4994733;28;20413;-71
2021/11/28 04:21:19;;;;;;;11.27;2.70;;;;;;;;;;4995445;28;20042;-73
2021/11/28 04:23:48;;;;;;;17.67;3.60;;;;;;;;;;4979383;28;20477;-77
2021/11/28 04:26:16;;;;;;;14.98;4.25;;;;;;;;;;4995380;28;20423;-76
2021/11/28 04:28:45;;;;;;;20.40;6.25;;;;;;;;;;4995549;28;20042;-74
2021/11/28 04:31:12;;;;;;;17.42;5.45;;;;;;;;;;5012698;28;20540;-76
2021/11/28 04:33:40;;;;;;;15.40;4.63;;;;;;;;;;4995226;28;20555;-74
2021/11/28 04:36:08;;;;;;;13.70;3.65;;;;;;;;;;5013055;28;20509;-77
2021/11/28 04:38:36;;;;;;;11.55;3.10;;;;;;;;;;4995244;28;20569;-73
2021/11/28 04:41:07;;;;;;;15.38;3.30;;;;;;;;;;4995385;28;20038;-73
2021/11/28 04:43:44;;;;;;;12.80;2.75;;;;;;;;;;4995012;28;20129;-71
2021/11/28 04:46:12;;;;;;;14.75;3.28;;;;;;;;;;4994807;28;20050;-71
2021/11/28 04:48:41;;;;;;;12.45;3.25;;;;;;;;;;4995456;28;20050;-71
2021/11/28 04:51:28;;;;;;;12.30;3.20;;;;;;;;;;4995525;28;20405;-72
2021/11/28 04:53:58;;;;;;;15.40;3.78;;;;;;;;;;4998607;28;20490;-77
2021/11/28 04:56:27;;;;;;;20.55;3.78;;;;;;;;;;4998703;28;20038;-77
2021/11/28 04:59:00;;;;;;;16.65;3.33;;;;;;;;;;4998647;28;20061;-74
2021/11/28 05:01:31;;;;;;;16.75;2.92;;;;;;;;;;4998126;28;20509;-71
2021/11/28 05:04:20;;;;;;;13.85;3.63;;;;;;;;;;4985476;28;20046;-73
2021/11/28 05:07:07;;;;;;;11.77;3.63;;;;;;;;;;5016084;28;20046;-77
2021/11/28 05:09:40;;;;;;;13.13;3.08;;;;;;;;;;4998332;28;20042;-74
2021/11/28 05:12:09;;;;;;;19.95;3.72;;;;;;;;;;4998628;28;20049;-71
2021/11/28 05:14:39;;;;;;;17.38;3.58;;;;;;;;;;4998536;28;20042;-74
2021/11/28 05:17:07;;;;;;;13.27;2.60;;;;;;;;;;4998185;28;20073;-71
2021/11/28 05:19:44;;;;;;;17.75;3.75;;;;;;;;;;4983162;28;20042;-77
2021/11/28 05:22:35;;;;;;;;;;;;;;;;;;5008059;28;20555;-77
2021/11/28 05:25:04;;;;;;;20.48;3.90;;;;;;;;;;4998274;28;20288;-71
2021/11/28 05:27:32;;;;;;;24.92;3.22;;;;;;;;;;4982438;28;20069;-73
2021/11/28 05:30:00;;;;;;;17.73;3.85;;;;;;;;;;4997753;28;20057;-73
2021/11/28 05:32:46;;;;;;;14.50;3.13;;;;;;;;;;4998335;28;20140;-77
2021/11/28 05:35:32;;;;;;;15.23;3.08;;;;;;;;;;5015785;28;20120;-73
2021/11/28 05:38:39;;;;;;;17.33;3.20;;;;;;;;;;4995884;28;20049;-77
2021/11/28 05:41:10;;;;;;;22.48;3.90;;;;;;;;;;5015432;28;20500;-76
2021/11/28 05:43:42;;;;;;;31.58;4.47;;;;;;;;;;4997591;28;20046;-73
2021/11/28 05:46:10;;;;;;;28.85;4.78;;;;;;;;;;4997901;28;20056;-73
2021/11/28 05:49:07;;;;;;;20.83;4.82;;;;;;;;;;4997793;28;20049;-77
2021/11/28 05:51:54;;;;;;;22.42;4.40;;;;;;;;;;5001243;28;20057;-73
2021/11/28 05:54:22;;;;;;;17.98;4.10;;;;;;;;;;4998194;28;20062;-73
2021/11/28 05:56:51;;;;;;;21.50;3.85;;;;;;;;;;5015170;28;20042;-73
2021/11/28 05:59:19;;;;;;;28.50;3.53;;;;;;;;;;4981053;28;20084;-71
2021/11/28 06:01:46;;;;;;;30.88;3.47;;;;;;;;;;4997623;28;20077;-74
2021/11/28 06:04:16;;;;;;;19.67;3.42;;;;;;;;;;4997280;28;20057;-73
2021/11/28 06:07:02;;;;;;;14.98;4.18;;;;;;;;;;5015298;28;20057;-73
2021/11/28 06:09:34;;;;;;;26.20;3.67;;;;;;;;;;4997634;28;20052;-76
2021/11/28 06:12:01;;;;;;;21.92;3.35;;;;;;;;;;5014975;28;20042;-73
2021/11/28 06:14:30;;;;;;;26.95;4.05;;;;;;;;;;4997265;28;20041;-73
2021/11/28 06:17:12;;;;;;;14.77;3.20;;;;;;;;;;4983252;28;20069;-74
2021/11/28 06:19:59;;;;;;;18.45;3.33;;;;;;;;;;5015160;28;20113;-71
2021/11/28 06:22:45;;;;;;;15.23;2.75;;;;;;;;;;5014812;28;20144;-73
2021/11/28 06:25:14;;;;;;;18.33;2.95;;;;;;;;;;4981123;28;20099;-74
2021/11/28 06:28:04;;;;;;;18.45;3.70;;;;;;;;;;5014297;28;20128;-73
2021/11/28 06:30:32;;;;;;;22.75;3.83;;;;;;;;;;4997123;28;20046;-71
2021/11/28 06:33:28;;;;;;;20.80;4.18;;;;;;;;;;5014267;28;20041;-73
2021/11/28 06:36:14;;;;;;;16.15;3.92;;;;;;;;;;5014480;28;20056;-74
2021/11/28 06:39:08;;;;;;;16.00;3.47;;;;;;;;;;5013828;28;20052;-71
2021/11/28 06:41:54;;;;;;;21.70;3.33;;;;;;;;;;5013861;28;20064;-71
2021/11/28 06:44:21;;;;;;;23.30;3.05;;;;;;;;;;4997077;28;20096;-73
2021/11/28 06:46:49;;;;;;;14.70;3.17;;;;;;;;;;4996625;28;20458;-77
2021/11/28 06:49:18;;;;;;;16.60;3.55;;;;;;;;;;4996643;28;20061;-74
2021/11/28 06:52:23;;;;;;;22.90;4.15;;;;;;;;;;4997158;28;20052;-73
2021/11/28 06:55:10;;;;;;;22.15;4.07;;;;;;;;;;5014631;28;20072;-72
2021/11/28 06:57:38;;;;;;;17.25;3.30;;;;;;;;;;4995934;28;20395;-73
2021/11/28 07:00:08;;;;;;;19.95;3.45;;;;;;;;;;4996611;28;20042;-71
2021/11/28 07:02:35;;;;;;;19.67;3.83;;;;;;;;;;4996283;28;20049;-72
2021/11/28 07:05:22;;;;;;;19.23;3.20;;;;;;;;;;5014354;28;20080;-76
2021/11/28 07:07:50;;;;;;;20.38;3.38;;;;;;;;;;4996206;28;20162;-71
2021/11/28 07:10:18;;;;;;;18.20;3.15;;;;;;;;;;4986406;28;20134;-73
2021/11/28 07:12:46;;;;;;;20.25;2.80;;;;;;;;;;4973576;28;20066;-77
2021/11/28 07:15:20;;;;;;;21.33;3.50;;;;;;;;;;4973438;28;20043;-71
2021/11/28 07:17:47;;;;;;;18.27;3.45;;;;;;;;;;4972885;28;20050;-71
2021/11/28 07:20:34;;;;;;;16.25;3.08;;;;;;;;;;4974604;28;20057;-73
2021/11/28 07:23:03;;;;;;;16.65;3.15;;;;;;;;;;4973734;28;20058;-77
2021/11/28 07:25:31;;;;;;;14.10;3.10;;;;;;;;;;4972804;28;20042;-77
2021/11/28 07:28:11;;;;;;;20.20;3.53;;;;;;;;;;4973544;28;20171;-71
2021/11/28 07:30:42;;;;;;;13.43;2.95;;;;;;;;;;4973283;28;20425;-77
2021/11/28 07:33:36;;;;;;;17.33;2.63;;;;;;;;;;4973276;28;20573;-73
2021/11/28 07:36:24;;;;;;;27.85;3.22;;;;;;;;;;4973182;28;20050;-77
2021/11/28 07:38:52;;;;;;;21.38;2.75;;;;;;;;;;4957144;28;20053;-73
2021/11/28 07:41:19;;;;;;;17.55;3.30;;;;;;;;;;4972705;28;20090;-76
2021/11/28 07:43:51;;;;;;;16.23;3.25;;;;;;;;;;4973184;28;20059;-71
2021/11/28 07:46:54;;;;;;;16.15;3.10;;;;;;;;;;4963744;28;20129;-77
2021/11/28 07:49:24;;;;;;;12.98;3.47;;;;;;;;;;4974672;28;20129;-71
2021/11/28 07:51:55;;;;;;;15.48;3.10;;;;;;;;;;4973303;28;20210;-71
2021/11/28 07:54:23;;;;;;;19.83;3.95;;;;;;;;;;4972785;28;20133;-71
2021/11/28 07:56:52;;;;;;;15.30;3.50;;;;;;;;;;4972731;28;20054;-74
2021/11/28 07:59:39;;;;;;;19.23;3.08;;;;;;;;;;4974648;28;20565;-74
2021/11/28 08:02:15;;;;;;;16.42;3.03;;;;;;;;;;4972877;28;20042;-72
2021/11/28 08:04:43;;;;;;;14.77;3.75;;;;;;;;;;4973808;28;20039;-74
2021/11/28 08:07:31;;;;;;;13.43;3.25;;;;;;;;;;4974140;28;20053;-78
2021/11/28 08:10:21;;;;;;;16.20;3.17;;;;;;;;;;4993607;23;20050;-78
2021/11/28 08:12:49;;;;;;;17.45;2.50;;;;;;;;;;5012988;28;20038;-78
2021/11/28 08:15:18;;;;;;;10.45;2.60;;;;;;;;;;5012543;28;20057;-74
2021/11/28 08:17:47;;;;;;;20.20;3.03;;;;;;;;;;5011687;28;20077;-74
2021/11/28 08:20:17;;;;;;;12.32;3.08;;;;;;;;;;5011826;28;20050;-72
2021/11/28 08:22:46;;;;;;;9.73;3.22;;;;;;;;;;5012775;28;20627;-74
2021/11/28 08:25:14;;;;;;;20.25;3.13;;;;;;;;;;5011577;28;20046;-78
2021/11/28 08:27:42;;;;;;;13.80;2.85;;;;;;;;;;5014108;28;20054;-74
2021/11/28 08:30:13;;;;;;;12.05;2.28;;;;;;;;;;5015808;28;20050;-77
2021/11/28 08:33:06;;;;;;;11.95;2.80;;;;;;;;;;5016605;28;20129;-78
2021/11/28 08:35:43;;;;;;;16.75;3.30;;;;;;;;;;5016884;28;20065;-72
2021/11/28 08:38:11;;;;;;;11.75;2.53;;;;;;;;;;5016344;28;20088;-77
2021/11/28 08:40:39;;;;;;;12.63;2.53;;;;;;;;;;5016684;28;20030;-72
2021/11/28 08:43:06;;;;;;;9.95;2.60;;;;;;;;;;5016648;28;20048;-73
2021/11/28 08:45:34;;;;;;;11.70;2.47;;;;;;;;;;5015345;28;20046;-78
2021/11/28 08:48:02;;;;;;;11.43;2.83;;;;;;;;;;5015429;28;20053;-72
2021/11/28 08:50:30;;;;;;;9.20;2.33;;;;;;;;;;5015322;28;20141;-75
2021/11/28 08:52:57;;;;;;;10.23;2.60;;;;;;;;;;5014838;28;20402;-74
2021/11/28 08:55:25;;;;;;;13.02;2.90;;;;;;;;;;5015239;28;20041;-72
2021/11/28 08:57:52;;;;;;;8.65;2.25;;;;;;;;;;5015447;28;20046;-75
2021/11/28 09:00:20;;;;;;;14.02;2.92;;;;;;;;;;5016542;28;20120;-75
2021/11/28 09:02:50;;;;;;;9.60;2.70;;;;;;;;;;5016410;28;20112;-72
2021/11/28 09:05:21;;;;;;;8.55;2.13;;;;;;;;;;5015041;28;20603;-78
2021/11/28 09:07:49;;;;;;;14.00;3.30;;;;;;;;;;5015504;28;20046;-78
2021/11/28 09:10:19;;;;;;;8.60;2.28;;;;;;;;;;4998779;28;20457;-72
2021/11/28 09:12:47;;;;;;;8.77;2.17;;;;;;;;;;5015294;28;20042;-74
2021/11/28 09:15:16;;;;;;;12.90;2.20;;;;;;;;;;5015331;28;20045;-74
2021/11/28 09:17:50;;;;;;;8.02;1.92;;;;;;;;;;5015652;28;20046;-78
2021/11/28 09:20:21;;;;;;;14.10;2.63;;;;;;;;;;5015928;28;20117;-74
2021/11/28 09:25:25;;;;;;;13.65;2.88;;;;;;;;;;5014881;28;20149;-72
2021/11/28 09:27:54;;;;;;;10.00;2.78;;;;;;;;;;5015673;28;20532;-74
2021/11/28 09:30:23;;;;;;;10.85;2.65;;;;;;;;;;5014793;28;20038;-72
2021/11/28 09:32:54;;;;;;;8.15;2.42;;;;;;;;;;5014663;28;20144;-78
2021/11/28 09:35:25;;;;;;;8.60;1.80;;;;;;;;;;5015887;28;20048;-78
2021/11/28 09:37:56;;;;;;;11.98;2.20;;;;;;;;;;5013872;28;20059;-72
2021/11/28 09:40:24;;;;;;;11.55;2.30;;;;;;;;;;5014317;28;20042;-74
2021/11/28 09:42:57;;;;;;;11.80;2.67;;;;;;;;;;5015411;28;20132;-72
2021/11/28 09:45:27;;;;;;;9.25;2.45;;;;;;;;;;5015779;28;20045;-74
2021/11/28 09:47:58;;;;;;;11.50;2.63;;;;;;;;;;5015582;28;20049;-78
2021/11/28 09:50:27;;;;;;;9.35;2.55;;;;;;;;;;5014825;28;20052;-72
2021/11/28 09:52:58;;;;;;;11.98;2.42;;;;;;;;;;5015226;28;20401;-75
2021/11/28 09:55:27;;;;;;;11.65;2.33;;;;;;;;;;5015894;28;20069;-72
2021/11/28 09:57:58;;;;;;;7.90;2.60;;;;;;;;;;5015060;28;20048;-72
2021/11/28 10:00:26;;;;;;;12.13;3.00;;;;;;;;;;5014997;28;20100;-74
2021/11/28 10:02:53;;;;;;;12.98;3.10;;;;;;;;;;5015116;28;20050;-74
2021/11/28 10:05:24;;;;;;;12.77;2.60;;;;;;;;;;5014967;28;20050;-72
2021/11/28 10:07:52;;;;;;;12.05;3.13;;;;;;;;;;5015315;28;20437;-72
2021/11/28 10:10:20;;;;;;;6.60;2.38;;;;;;;;;;5029979;28;20048;-77
2021/11/28 10:12:50;;;;;;;12.57;2.88;;;;;;;;;;5055303;28;20037;-75
2021/11/28 10:15:22;;;;;;;9.77;2.55;;;;;;;;;;5054682;28;20406;-74
2021/11/28 10:17:52;;;;;;;15.85;2.50;;;;;;;;;;5054727;28;20120;-75
2021/11/28 10:20:23;;;;;;;9.05;2.45;;;;;;;;;;5036135;28;20369;-72
2021/11/28 10:22:51;;;;;;;10.48;3.08;;;;;;;;;;5054402;28;20043;-78
2021/11/28 10:25:23;;;;;;;10.98;2.60;;;;;;;;;;5036687;28;20041;-72
2021/11/28 10:28:12;;;;;;;13.20;3.00;;;;;;;;;;5054423;28;20574;-72
2021/11/28 10:30:42;;;;;;;12.88;2.70;;;;;;;;;;5054532;28;20041;-74
2021/11/28 10:33:14;;;;;;;18.35;3.30;;;;;;;;;;5054594;28;20045;-74
2021/11/28 10:36:10;;;;;;;10.88;3.08;;;;;;;;;;5054000;28;20124;-72
2021/11/28 10:38:40;;;;;;;12.20;2.95;;;;;;;;;;5052745;28;20080;-72
2021/11/28 10:41:20;;;;;;;13.60;3.08;;;;;;;;;;5054092;28;20037;-75
2021/11/28 10:43:48;;;;;;;9.02;2.25;;;;;;;;;;5054001;28;20128;-75
2021/11/28 10:46:23;;;;;;;6.93;2.17;;;;;;;;;;5036143;28;20056;-78
2021/11/28 10:49:12;;;;;;;9.57;2.38;;;;;;;;;;5053349;28;20044;-72
2021/11/28 10:51:41;;;;;;;9.18;1.80;;;;;;;;;;5053924;28;20127;-74
2021/11/28 10:54:21;;;;;;;7.78;2.15;;;;;;;;;;5035657;28;20064;-77
2021/11/28 10:56:49;;;;;;;11.50;2.75;;;;;;;;;;5053957;28;20059;-72
2021/11/28 10:59:20;;;;;;;11.23;2.33;;;;;;;;;;5053803;28;20045;-74
2021/11/28 11:01:48;;;;;;;15.27;3.15;;;;;;;;;;5053776;28;20463;-78
2021/11/28 11:04:19;;;;;;;11.57;3.00;;;;;;;;;;5053580;28;20496;-74
2021/11/28 11:07:05;;;;;;;10.82;3.08;;;;;;;;;;5035922;28;20120;-78
2021/11/28 11:09:45;;;;;;;8.35;2.40;;;;;;;;;;5053093;28;20044;-74
2021/11/28 11:12:19;;;;;;;7.93;2.05;;;;;;;;;;5053573;28;20041;-74
2021/11/28 11:14:49;;;;;;;10.07;2.88;;;;;;;;;;5053423;28;20051;-78
2021/11/28 11:17:21;;;;;;;12.05;3.25;;;;;;;;;;5052663;28;20045;-75
2021/11/28 11:19:49;;;;;;;11.50;2.83;;;;;;;;;;5053841;28;20041;-78
2021/11/28 11:22:18;;;;;;;7.97;2.90;;;;;;;;;;5053376;28;20119;-78
2021/11/28 11:24:53;;;;;;;7.68;2.47;;;;;;;;;;5035466;28;20120;-78
2021/11/28 11:27:20;;;;;;;9.02;2.00;;;;;;;;;;5052979;28;20123;-78
2021/11/28 11:29:50;;;;;;;5.97;2.10;;;;;;;;;;5053323;28;20400;-74
2021/11/28 11:32:20;;;;;;;5.80;1.92;;;;;;;;;;5034553;28;20052;-78
2021/11/28 11:34:58;;;;;;;7.03;2.13;;;;;;;;;;5052890;28;20047;-74
2021/11/28 11:37:27;;;;;;;7.55;2.30;;;;;;;;;;5035209;28;20063;-73
2021/11/28 11:39:56;;;;;;;5.75;2.80;;;;;;;;;;5053096;28;20041;-75
2021/11/28 11:42:28;;;;;;;12.05;4.07;;;;;;;;;;5053140;28;20041;-74
2021/11/28 11:44:56;;;;;;;7.57;3.72;;;;;;;;;;5053086;28;20049;-72
2021/11/28 11:47:24;;;;;;;8.95;2.90;;;;;;;;;;5052542;28;20044;-72
2021/11/28 11:49:52;;;;;;;7.85;3.30;;;;;;;;;;5052943;28;20044;-74
2021/11/28 11:52:21;;;;;;;6.30;2.53;;;;;;;;;;5019060;28;20400;-74
2021/11/28 11:54:50;;;;;;;6.82;2.88;;;;;;;;;;5018745;28;20411;-72
2021/11/28 11:57:19;;;;;;;7.20;3.10;;;;;;;;;;5052666;28;20119;-74
2021/11/28 11:59:54;;;;;;;6.38;2.97;;;;;;;;;;5034721;28;20081;-77
2021/11/28 12:02:53;;;;;;;4.88;2.17;;;;;;;;;;5051615;28;20095;-72
2021/11/28 12:05:24;;;;;;;5.10;2.40;;;;;;;;;;5002905;28;20041;-74
2021/11/28 12:07:53;;;;;;;7.28;2.47;;;;;;;;;;5034839;28;20071;-78
2021/11/28 12:10:33;;;;;;;5.57;2.00;;;;;;;;;;5034735;28;20053;-78
2021/11/28 12:13:03;;;;;;;4.43;2.20;;;;;;;;;;5034652;28;20045;-77
2021/11/28 12:15:31;;;;;;;4.28;2.42;;;;;;;;;;5052324;28;20064;-78
2021/11/28 12:18:00;;;;;;;7.40;2.17;;;;;;;;;;5052642;28;20040;-74
2021/11/28 12:20:47;;;;;;;8.35;2.63;;;;;;;;;;5034707;28;20136;-77
2021/11/28 12:23:34;;;;;;;9.25;2.13;;;;;;;;;;5052633;28;20047;-77
2021/11/28 12:26:02;;;;;;;8.02;2.70;;;;;;;;;;5052469;28;20120;-76
2021/11/28 12:28:31;;;;;;;6.20;2.42;;;;;;;;;;5052643;28;20044;-72
2021/11/28 12:31:25;;;;;;;4.80;2.33;;;;;;;;;;5051711;28;20077;-72
2021/11/28 12:33:54;;;;;;;4.18;2.05;;;;;;;;;;5034539;28;20049;-72
2021/11/28 12:36:34;;;;;;;9.43;2.60;;;;;;;;;;5052207;28;20041;-74
2021/11/28 12:39:07;;;;;;;5.85;2.40;;;;;;;;;;5035108;28;20068;-75
2021/11/28 12:41:48;;;;;;;6.47;2.72;;;;;;;;;;5052035;28;20080;-74
2021/11/28 12:44:18;;;;;;;8.05;2.90;;;;;;;;;;5052215;28;20049;-75
2021/11/28 12:46:47;;;;;;;6.82;2.95;;;;;;;;;;5052121;28;20068;-74
2021/11/28 12:49:32;;;;;;;6.78;2.70;;;;;;;;;;5052155;28;20411;-78
2021/11/28 12:52:26;;;;;;;6.82;3.13;;;;;;;;;;5052698;28;20049;-78
2021/11/28 12:55:07;;;;;;;7.50;3.30;;;;;;;;;;5052287;28;20083;-72
2021/11/28 12:57:41;;;;;;;7.22;2.70;;;;;;;;;;5052217;28;20094;-74
2021/11/28 13:00:18;;;;;;;7.32;2.25;;;;;;;;;;5034172;28;20132;-74
2021/11/28 13:03:08;;;;;;;6.78;2.38;;;;;;;;;;5052389;28;20683;-73
2021/11/28 13:05:36;;;;;;;7.25;2.60;;;;;;;;;;5022638;28;20048;-72
2021/11/28 13:08:04;;;;;;;11.55;2.90;;;;;;;;;;5052200;28;20504;-74
2021/11/28 13:10:38;;;;;;;12.00;2.97;;;;;;;;;;5034225;28;20076;-74
2021/11/28 13:13:12;;;;;;;8.70;2.53;;;;;;;;;;5051819;28;20033;-77
2021/11/28 13:15:54;;;;;;;4.32;1.95;;;;;;;;;;5037595;28;20048;-78
2021/11/28 13:18:25;;;;;;;6.60;2.50;;;;;;;;;;5055355;28;20040;-72
2021/11/28 13:21:21;;;;;;;9.75;2.35;;;;;;;;;;5009051;28;20052;-74
2021/11/28 13:24:07;;;;;;;9.48;2.60;;;;;;;;;;5055862;28;20052;-77
2021/11/28 13:26:49;;;;;;;6.18;1.95;;;;;;;;;;5055521;28;20045;-73
2021/11/28 13:29:17;;;;;;;5.65;2.25;;;;;;;;;;5055596;28;20051;-75
2021/11/28 13:31:44;;;;;;;12.57;3.30;;;;;;;;;;5038055;28;20048;-74
2021/11/28 13:34:12;;;;;;;5.97;2.30;;;;;;;;;;5037213;28;20045;-72
2021/11/28 13:36:42;;;;;;;9.98;2.40;;;;;;;;;;5037406;28;20159;-78
2021/11/28 13:39:15;;;;;;;6.63;2.05;;;;;;;;;;5020830;28;20051;-72
2021/11/28 13:41:43;;;;;;;8.27;1.80;;;;;;;;;;5037469;28;20530;-74
2021/11/28 13:44:14;;;;;;;6.13;1.70;;;;;;;;;;5036764;28;20079;-73
2021/11/28 13:46:47;;;;;;;8.43;1.77;;;;;;;;;;5055242;28;20075;-78
2021/11/28 13:49:21;;;;;;;3.03;1.52;;;;;;;;;;5037379;28;20103;-78
2021/11/28 13:51:51;;;;;;;5.00;1.48;;;;;;;;;;5055678;28;20049;-74
2021/11/28 13:54:28;;;;;;;8.98;1.60;;;;;;;;;;5055232;28;20080;-71
2021/11/28 13:56:56;;;;;;;5.90;1.52;;;;;;;;;;5054487;28;20124;-72
2021/11/28 13:59:26;;;;;;;5.65;1.55;;;;;;;;;;5054585;28;20072;-72
2021/11/28 14:02:12;;;;;;;3.17;1.45;;;;;;;;;;5055051;28;20458;-78
2021/11/28 14:04:41;;;;;;;6.57;1.60;;;;;;;;;;5037039;28;20044;-72
2021/11/28 14:07:11;;;;;;;5.13;1.10;;;;;;;;;;5054817;28;20071;-74
2021/11/28 14:09:47;;;;;;;3.22;1.20;;;;;;;;;;5054541;28;20132;-74
2021/11/28 14:12:44;;;;;;;6.03;1.40;;;;;;;;;;5036324;28;20091;-74
2021/11/28 14:15:13;;;;;;;2.33;1.05;;;;;;;;;;5033968;28;20151;-74
2021/11/28 14:17:41;;;;;;;6.63;1.83;;;;;;;;;;5054485;28;20540;-78
2021/11/28 14:20:10;;;;;;;2.60;1.50;;;;;;;;;;5054737;28;20055;-74
2021/11/28 14:22:39;;;;;;;7.85;2.00;;;;;;;;;;5036553;28;20045;-72
2021/11/28 14:25:23;;;;;;;4.38;1.33;;;;;;;;;;5053965;28;20120;-77
2021/11/28 14:28:09;;;;;;;5.07;1.65;;;;;;;;;;5053782;28;20071;-78
2021/11/28 14:30:39;;;;;;;7.13;1.60;;;;;;;;;;5054638;28;20124;-78
2021/11/28 14:33:13;;;;;;;4.97;1.15;;;;;;;;;;5036528;28;20412;-73
2021/11/28 14:35:54;;;;;;;4.95;1.27;;;;;;;;;;5053827;28;20433;-74
2021/11/28 14:38:25;;;;;;;5.25;1.23;;;;;;;;;;5053868;28;20473;-78
2021/11/28 14:40:54;;;;;;;5.13;1.33;;;;;;;;;;5053539;28;20045;-74
2021/11/28 14:43:24;;;;;;;5.63;1.30;;;;;;;;;;5036294;28;20033;-72
2021/11/28 14:46:12;;;;;;;4.50;1.20;;;;;;;;;;5035936;28;20509;-74
2021/11/28 14:48:43;;;;;;;4.43;1.10;;;;;;;;;;5054396;28;20047;-75
2021/11/28 14:51:13;;;;;;;5.20;1.40;;;;;;;;;;5054245;28;20416;-72
2021/11/28 14:53:45;;;;;;;6.40;1.30;;;;;;;;;;5054218;28;20401;-77
2021/11/28 14:56:14;;;;;;;4.53;1.40;;;;;;;;;;5035300;28;20128;-72
2021/11/28 14:58:46;;;;;;;4.05;1.70;;;;;;;;;;5053729;28;20124;-78
2021/11/28 15:01:14;;;;;;;6.35;1.98;;;;;;;;;;5036034;28;20041;-75
2021/11/28 15:04:01;;;;;;;4.00;1.15;;;;;;;;;;5053789;28;20048;-72
2021/11/28 15:06:28;;;;;;;8.07;1.45;;;;;;;;;;5035926;28;20044;-78
2021/11/28 15:08:56;;;;;;;3.83;1.10;;;;;;;;;;5019663;28;20499;-74
2021/11/28 15:11:34;;;;;;;2.03;1.33;;;;;;;;;;5035215;28;20049;-72
2021/11/28 15:14:03;;;;;;;4.28;2.42;;;;;;;;;;5035879;28;20055;-72
2021/11/28 15:16:35;;;;;;;4.22;2.22;;;;;;;;;;5019108;28;20500;-74
2021/11/28 15:19:10;;;;;;;1.88;1.42;;;;;;;;;;5053501;28;20037;-72